sensor_id;sensor_type;location;lat;lon;timestamp;P1;durP1;ratioP1;P2;durP2;ratioP2
61911;SDS011;49973;52.084;5.412;2023-09-19T00:00:44;9.40;;;1.50;;
61911;SDS011;49973;52.084;5.412;2023-09-19T00:03:14;10.97;;;2.10;;
61911;SDS011;49973;52.084;5.412;2023-09-19T00:05:44;8.37;;;1.27;;
61911;SDS011;49973;52.084;5.412;2023-09-19T00:08:13;9.60;;;2.03;;
61911;SDS011;49973;52.084;5.412;2023-09-19T00:10:43;8.53;;;1.90;;
61911;SDS011;49973;52.084;5.412;2023-09-19T00:13:12;15.07;;;2.93;;
61911;SDS011;49973;52.084;5.412;2023-09-19T00:15:43;6.97;;;2.10;;
61911;SDS011;49973;52.084;5.412;2023-09-19T00:18:17;8.77;;;1.97;;
61911;SDS011;49973;52.084;5.412;2023-09-19T00:20:47;11.57;;;1.40;;
61911;SDS011;49973;52.084;5.412;2023-09-19T00:23:17;8.17;;;2.20;;
61911;SDS011;49973;52.084;5.412;2023-09-19T00:25:48;17.13;;;2.73;;
61911;SDS011;49973;52.084;5.412;2023-09-19T00:28:17;8.90;;;2.10;;
61911;SDS011;49973;52.084;5.412;2023-09-19T00:30:48;10.97;;;2.30;;
61911;SDS011;49973;52.084;5.412;2023-09-19T00:33:18;8.87;;;2.17;;
61911;SDS011;49973;52.084;5.412;2023-09-19T00:35:47;6.33;;;1.90;;
61911;SDS011;49973;52.084;5.412;2023-09-19T00:38:16;5.87;;;1.43;;
61911;SDS011;49973;52.084;5.412;2023-09-19T00:40:49;12.40;;;1.93;;
61911;SDS011;49973;52.084;5.412;2023-09-19T00:43:19;6.60;;;1.90;;
61911;SDS011;49973;52.084;5.412;2023-09-19T00:45:49;4.43;;;2.00;;
61911;SDS011;49973;52.084;5.412;2023-09-19T00:48:20;11.20;;;1.80;;
61911;SDS011;49973;52.084;5.412;2023-09-19T00:50:50;5.60;;;1.60;;
61911;SDS011;49973;52.084;5.412;2023-09-19T00:53:21;7.37;;;1.83;;
61911;SDS011;49973;52.084;5.412;2023-09-19T00:55:55;6.93;;;1.77;;
61911;SDS011;49973;52.084;5.412;2023-09-19T00:58:24;8.07;;;2.53;;
61911;SDS011;49973;52.084;5.412;2023-09-19T01:01:00;13.23;;;2.20;;
61911;SDS011;49973;52.084;5.412;2023-09-19T01:03:29;7.83;;;2.03;;
61911;SDS011;49973;52.084;5.412;2023-09-19T01:05:59;10.00;;;2.00;;
61911;SDS011;49973;52.084;5.412;2023-09-19T01:08:29;5.23;;;1.93;;
61911;SDS011;49973;52.084;5.412;2023-09-19T01:11:01;9.30;;;2.23;;
61911;SDS011;49973;52.084;5.412;2023-09-19T01:13:40;11.57;;;2.47;;
61911;SDS011;49973;52.084;5.412;2023-09-19T01:16:19;8.17;;;2.30;;
61911;SDS011;49973;52.084;5.412;2023-09-19T01:18:59;8.63;;;2.37;;
61911;SDS011;49973;52.084;5.412;2023-09-19T01:21:40;10.93;;;2.33;;
61911;SDS011;49973;52.084;5.412;2023-09-19T01:24:33;8.63;;;2.63;;
61911;SDS011;49973;52.084;5.412;2023-09-19T01:27:35;8.20;;;2.43;;
61911;SDS011;49973;52.084;5.412;2023-09-19T01:30:36;7.17;;;2.57;;
61911;SDS011;49973;52.084;5.412;2023-09-19T01:33:10;8.13;;;2.47;;
61911;SDS011;49973;52.084;5.412;2023-09-19T01:35:39;10.77;;;2.73;;
61911;SDS011;49973;52.084;5.412;2023-09-19T01:38:09;9.20;;;2.50;;
61911;SDS011;49973;52.084;5.412;2023-09-19T01:40:39;21.87;;;2.80;;
61911;SDS011;49973;52.084;5.412;2023-09-19T01:43:12;17.63;;;2.80;;
61911;SDS011;49973;52.084;5.412;2023-09-19T01:46:01;19.23;;;2.57;;
61911;SDS011;49973;52.084;5.412;2023-09-19T01:48:38;12.83;;;2.43;;
61911;SDS011;49973;52.084;5.412;2023-09-19T01:51:14;8.70;;;2.37;;
61911;SDS011;49973;52.084;5.412;2023-09-19T01:53:53;11.43;;;2.20;;
61911;SDS011;49973;52.084;5.412;2023-09-19T01:56:30;9.60;;;2.97;;
61911;SDS011;49973;52.084;5.412;2023-09-19T01:59:06;5.63;;;2.00;;
61911;SDS011;49973;52.084;5.412;2023-09-19T02:01:39;6.40;;;2.13;;
61911;SDS011;49973;52.084;5.412;2023-09-19T02:04:12;9.83;;;2.43;;
61911;SDS011;49973;52.084;5.412;2023-09-19T02:06:41;9.37;;;2.23;;
61911;SDS011;49973;52.084;5.412;2023-09-19T02:09:10;16.37;;;2.27;;
61911;SDS011;49973;52.084;5.412;2023-09-19T02:11:39;9.13;;;1.83;;
61911;SDS011;49973;52.084;5.412;2023-09-19T02:14:08;15.60;;;2.70;;
61911;SDS011;49973;52.084;5.412;2023-09-19T02:16:36;12.77;;;2.20;;
61911;SDS011;49973;52.084;5.412;2023-09-19T02:19:06;10.73;;;2.03;;
61911;SDS011;49973;52.084;5.412;2023-09-19T02:21:35;11.17;;;2.53;;
61911;SDS011;49973;52.084;5.412;2023-09-19T02:24:08;10.43;;;2.23;;
61911;SDS011;49973;52.084;5.412;2023-09-19T02:26:37;10.03;;;2.37;;
61911;SDS011;49973;52.084;5.412;2023-09-19T02:29:06;11.67;;;2.97;;
61911;SDS011;49973;52.084;5.412;2023-09-19T02:31:35;9.63;;;2.20;;
61911;SDS011;49973;52.084;5.412;2023-09-19T02:34:04;14.90;;;2.53;;
61911;SDS011;49973;52.084;5.412;2023-09-19T02:36:35;9.03;;;2.07;;
61911;SDS011;49973;52.084;5.412;2023-09-19T02:39:04;10.33;;;1.77;;
61911;SDS011;49973;52.084;5.412;2023-09-19T02:41:35;10.40;;;2.53;;
61911;SDS011;49973;52.084;5.412;2023-09-19T02:44:04;12.83;;;2.10;;
61911;SDS011;49973;52.084;5.412;2023-09-19T02:46:34;6.77;;;1.53;;
61911;SDS011;49973;52.084;5.412;2023-09-19T02:49:04;15.27;;;2.10;;
61911;SDS011;49973;52.084;5.412;2023-09-19T02:51:35;14.63;;;2.73;;
61911;SDS011;49973;52.084;5.412;2023-09-19T02:54:03;6.43;;;2.37;;
61911;SDS011;49973;52.084;5.412;2023-09-19T02:56:32;9.33;;;2.10;;
61911;SDS011;49973;52.084;5.412;2023-09-19T02:59:02;7.87;;;1.57;;
61911;SDS011;49973;52.084;5.412;2023-09-19T03:01:32;10.97;;;2.27;;
61911;SDS011;49973;52.084;5.412;2023-09-19T03:04:01;15.43;;;2.60;;
61911;SDS011;49973;52.084;5.412;2023-09-19T03:06:31;6.57;;;2.13;;
61911;SDS011;49973;52.084;5.412;2023-09-19T03:09:00;14.00;;;2.53;;
61911;SDS011;49973;52.084;5.412;2023-09-19T03:11:33;24.33;;;2.47;;
61911;SDS011;49973;52.084;5.412;2023-09-19T03:14:01;15.07;;;1.83;;
61911;SDS011;49973;52.084;5.412;2023-09-19T03:16:31;19.17;;;2.27;;
61911;SDS011;49973;52.084;5.412;2023-09-19T03:19:00;14.73;;;1.97;;
61911;SDS011;49973;52.084;5.412;2023-09-19T03:21:32;11.77;;;2.20;;
61911;SDS011;49973;52.084;5.412;2023-09-19T03:24:02;7.93;;;1.73;;
61911;SDS011;49973;52.084;5.412;2023-09-19T03:26:32;12.67;;;2.37;;
61911;SDS011;49973;52.084;5.412;2023-09-19T03:29:03;9.00;;;1.83;;
61911;SDS011;49973;52.084;5.412;2023-09-19T03:31:35;7.87;;;1.90;;
61911;SDS011;49973;52.084;5.412;2023-09-19T03:34:08;15.87;;;1.80;;
61911;SDS011;49973;52.084;5.412;2023-09-19T03:36:38;24.20;;;1.90;;
61911;SDS011;49973;52.084;5.412;2023-09-19T03:39:08;11.33;;;2.20;;
61911;SDS011;49973;52.084;5.412;2023-09-19T03:41:37;10.37;;;2.40;;
61911;SDS011;49973;52.084;5.412;2023-09-19T03:44:06;8.13;;;1.93;;
61911;SDS011;49973;52.084;5.412;2023-09-19T03:46:35;8.90;;;1.60;;
61911;SDS011;49973;52.084;5.412;2023-09-19T03:49:04;11.30;;;1.77;;
61911;SDS011;49973;52.084;5.412;2023-09-19T03:51:33;11.37;;;2.10;;
61911;SDS011;49973;52.084;5.412;2023-09-19T03:54:04;6.57;;;1.97;;
61911;SDS011;49973;52.084;5.412;2023-09-19T03:56:34;11.50;;;2.27;;
61911;SDS011;49973;52.084;5.412;2023-09-19T03:59:03;8.10;;;1.97;;
61911;SDS011;49973;52.084;5.412;2023-09-19T04:01:32;7.23;;;2.20;;
61911;SDS011;49973;52.084;5.412;2023-09-19T04:04:00;12.07;;;1.90;;
61911;SDS011;49973;52.084;5.412;2023-09-19T04:06:36;11.63;;;2.90;;
61911;SDS011;49973;52.084;5.412;2023-09-19T04:09:06;13.03;;;1.63;;
61911;SDS011;49973;52.084;5.412;2023-09-19T04:11:37;14.03;;;2.00;;
61911;SDS011;49973;52.084;5.412;2023-09-19T04:14:06;10.13;;;2.03;;
61911;SDS011;49973;52.084;5.412;2023-09-19T04:16:35;8.67;;;1.97;;
61911;SDS011;49973;52.084;5.412;2023-09-19T04:19:06;6.70;;;1.67;;
61911;SDS011;49973;52.084;5.412;2023-09-19T04:21:35;8.67;;;2.13;;
61911;SDS011;49973;52.084;5.412;2023-09-19T04:24:04;8.20;;;1.60;;
61911;SDS011;49973;52.084;5.412;2023-09-19T04:26:34;8.07;;;2.33;;
61911;SDS011;49973;52.084;5.412;2023-09-19T04:29:03;12.43;;;1.93;;
61911;SDS011;49973;52.084;5.412;2023-09-19T04:31:33;9.63;;;1.93;;
61911;SDS011;49973;52.084;5.412;2023-09-19T04:34:01;15.97;;;2.50;;
61911;SDS011;49973;52.084;5.412;2023-09-19T04:36:30;7.07;;;1.87;;
61911;SDS011;49973;52.084;5.412;2023-09-19T04:39:02;12.67;;;2.40;;
61911;SDS011;49973;52.084;5.412;2023-09-19T04:41:36;7.33;;;2.07;;
61911;SDS011;49973;52.084;5.412;2023-09-19T04:44:05;15.87;;;2.17;;
61911;SDS011;49973;52.084;5.412;2023-09-19T04:46:34;11.53;;;2.00;;
61911;SDS011;49973;52.084;5.412;2023-09-19T04:49:03;10.57;;;2.43;;
61911;SDS011;49973;52.084;5.412;2023-09-19T04:51:32;12.30;;;2.00;;
61911;SDS011;49973;52.084;5.412;2023-09-19T04:54:03;8.87;;;1.80;;
61911;SDS011;49973;52.084;5.412;2023-09-19T04:56:32;8.27;;;1.77;;
61911;SDS011;49973;52.084;5.412;2023-09-19T04:59:02;12.10;;;1.93;;
61911;SDS011;49973;52.084;5.412;2023-09-19T05:01:31;15.87;;;2.20;;
61911;SDS011;49973;52.084;5.412;2023-09-19T05:04:00;9.57;;;1.63;;
61911;SDS011;49973;52.084;5.412;2023-09-19T05:06:31;5.33;;;1.80;;
61911;SDS011;49973;52.084;5.412;2023-09-19T05:09:01;11.93;;;2.70;;
61911;SDS011;49973;52.084;5.412;2023-09-19T05:11:32;3.67;;;1.90;;
61911;SDS011;49973;52.084;5.412;2023-09-19T05:14:00;12.47;;;2.87;;
61911;SDS011;49973;52.084;5.412;2023-09-19T05:16:31;12.60;;;2.13;;
61911;SDS011;49973;52.084;5.412;2023-09-19T05:19:00;11.63;;;2.13;;
61911;SDS011;49973;52.084;5.412;2023-09-19T05:21:30;15.00;;;3.00;;
61911;SDS011;49973;52.084;5.412;2023-09-19T05:24:00;6.23;;;1.53;;
61911;SDS011;49973;52.084;5.412;2023-09-19T05:26:28;14.40;;;2.40;;
61911;SDS011;49973;52.084;5.412;2023-09-19T05:28:57;14.20;;;2.43;;
61911;SDS011;49973;52.084;5.412;2023-09-19T05:31:27;3.73;;;2.00;;
61911;SDS011;49973;52.084;5.412;2023-09-19T05:33:56;11.83;;;2.43;;
61911;SDS011;49973;52.084;5.412;2023-09-19T05:36:28;10.30;;;2.90;;
61911;SDS011;49973;52.084;5.412;2023-09-19T05:38:57;11.17;;;1.77;;
61911;SDS011;49973;52.084;5.412;2023-09-19T05:41:26;9.60;;;2.53;;
61911;SDS011;49973;52.084;5.412;2023-09-19T05:43:55;8.57;;;2.47;;
61911;SDS011;49973;52.084;5.412;2023-09-19T05:46:31;10.23;;;2.00;;
61911;SDS011;49973;52.084;5.412;2023-09-19T05:48:59;12.77;;;2.33;;
61911;SDS011;49973;52.084;5.412;2023-09-19T05:51:28;6.03;;;1.97;;
61911;SDS011;49973;52.084;5.412;2023-09-19T05:53:57;7.63;;;2.00;;
61911;SDS011;49973;52.084;5.412;2023-09-19T05:56:26;8.07;;;1.90;;
61911;SDS011;49973;52.084;5.412;2023-09-19T05:58:55;6.77;;;2.37;;
61911;SDS011;49973;52.084;5.412;2023-09-19T06:01:23;6.20;;;1.80;;
61911;SDS011;49973;52.084;5.412;2023-09-19T06:03:53;9.30;;;2.10;;
61911;SDS011;49973;52.084;5.412;2023-09-19T06:06:22;13.43;;;2.63;;
61911;SDS011;49973;52.084;5.412;2023-09-19T06:08:51;3.17;;;1.80;;
61911;SDS011;49973;52.084;5.412;2023-09-19T06:11:20;18.37;;;2.57;;
61911;SDS011;49973;52.084;5.412;2023-09-19T06:13:51;8.13;;;1.77;;
61911;SDS011;49973;52.084;5.412;2023-09-19T06:16:20;12.83;;;2.07;;
61911;SDS011;49973;52.084;5.412;2023-09-19T06:18:49;11.30;;;2.60;;
61911;SDS011;49973;52.084;5.412;2023-09-19T06:21:21;10.97;;;2.20;;
61911;SDS011;49973;52.084;5.412;2023-09-19T06:23:49;5.30;;;1.70;;
61911;SDS011;49973;52.084;5.412;2023-09-19T06:26:19;5.43;;;1.67;;
61911;SDS011;49973;52.084;5.412;2023-09-19T06:28:47;8.63;;;2.33;;
61911;SDS011;49973;52.084;5.412;2023-09-19T06:31:16;8.67;;;1.97;;
61911;SDS011;49973;52.084;5.412;2023-09-19T06:33:45;8.03;;;2.07;;
61911;SDS011;49973;52.084;5.412;2023-09-19T06:36:13;7.80;;;2.30;;
61911;SDS011;49973;52.084;5.412;2023-09-19T06:38:44;7.37;;;2.43;;
61911;SDS011;49973;52.084;5.412;2023-09-19T06:41:13;10.37;;;2.17;;
61911;SDS011;49973;52.084;5.412;2023-09-19T06:43:44;9.33;;;2.50;;
61911;SDS011;49973;52.084;5.412;2023-09-19T06:46:13;13.53;;;2.40;;
61911;SDS011;49973;52.084;5.412;2023-09-19T06:48:42;16.03;;;2.40;;
61911;SDS011;49973;52.084;5.412;2023-09-19T06:51:11;12.63;;;2.10;;
61911;SDS011;49973;52.084;5.412;2023-09-19T06:53:44;6.67;;;2.40;;
61911;SDS011;49973;52.084;5.412;2023-09-19T06:56:13;9.40;;;2.03;;
61911;SDS011;49973;52.084;5.412;2023-09-19T06:58:42;11.37;;;2.10;;
61911;SDS011;49973;52.084;5.412;2023-09-19T07:01:11;15.70;;;2.73;;
61911;SDS011;49973;52.084;5.412;2023-09-19T07:03:42;13.33;;;2.37;;
61911;SDS011;49973;52.084;5.412;2023-09-19T07:06:12;19.17;;;2.87;;
61911;SDS011;49973;52.084;5.412;2023-09-19T07:08:43;10.43;;;2.70;;
61911;SDS011;49973;52.084;5.412;2023-09-19T07:11:12;10.90;;;2.73;;
61911;SDS011;49973;52.084;5.412;2023-09-19T07:13:41;8.00;;;2.10;;
61911;SDS011;49973;52.084;5.412;2023-09-19T07:16:10;11.17;;;2.00;;
61911;SDS011;49973;52.084;5.412;2023-09-19T07:18:54;14.30;;;1.73;;
61911;SDS011;49973;52.084;5.412;2023-09-19T07:21:24;11.03;;;2.00;;
61911;SDS011;49973;52.084;5.412;2023-09-19T07:23:54;15.27;;;2.47;;
61911;SDS011;49973;52.084;5.412;2023-09-19T07:26:22;17.63;;;2.17;;
61911;SDS011;49973;52.084;5.412;2023-09-19T07:28:51;14.60;;;2.07;;
61911;SDS011;49973;52.084;5.412;2023-09-19T07:31:20;5.97;;;2.33;;
61911;SDS011;49973;52.084;5.412;2023-09-19T07:33:49;9.67;;;2.80;;
61911;SDS011;49973;52.084;5.412;2023-09-19T07:36:18;7.77;;;2.00;;
61911;SDS011;49973;52.084;5.412;2023-09-19T07:38:47;6.83;;;1.70;;
61911;SDS011;49973;52.084;5.412;2023-09-19T07:41:17;6.03;;;1.87;;
61911;SDS011;49973;52.084;5.412;2023-09-19T07:43:45;12.90;;;2.77;;
61911;SDS011;49973;52.084;5.412;2023-09-19T07:46:14;7.77;;;1.73;;
61911;SDS011;49973;52.084;5.412;2023-09-19T07:48:43;13.43;;;1.97;;
61911;SDS011;49973;52.084;5.412;2023-09-19T07:51:15;15.27;;;2.60;;
61911;SDS011;49973;52.084;5.412;2023-09-19T07:53:44;7.30;;;2.13;;
61911;SDS011;49973;52.084;5.412;2023-09-19T07:56:16;14.70;;;2.03;;
61911;SDS011;49973;52.084;5.412;2023-09-19T07:58:47;5.17;;;1.70;;
61911;SDS011;49973;52.084;5.412;2023-09-19T08:01:16;7.53;;;2.13;;
61911;SDS011;49973;52.084;5.412;2023-09-19T08:03:45;9.03;;;2.10;;
61911;SDS011;49973;52.084;5.412;2023-09-19T08:06:14;14.03;;;2.33;;
61911;SDS011;49973;52.084;5.412;2023-09-19T08:08:43;9.07;;;2.00;;
61911;SDS011;49973;52.084;5.412;2023-09-19T08:11:12;7.20;;;2.20;;
61911;SDS011;49973;52.084;5.412;2023-09-19T08:13:50;16.43;;;1.90;;
61911;SDS011;49973;52.084;5.412;2023-09-19T08:16:22;8.23;;;1.70;;
61911;SDS011;49973;52.084;5.412;2023-09-19T08:18:53;9.70;;;2.10;;
61911;SDS011;49973;52.084;5.412;2023-09-19T08:21:31;9.07;;;2.00;;
61911;SDS011;49973;52.084;5.412;2023-09-19T08:24:01;12.40;;;1.70;;
61911;SDS011;49973;52.084;5.412;2023-09-19T08:26:34;12.60;;;2.40;;
61911;SDS011;49973;52.084;5.412;2023-09-19T08:29:09;10.73;;;2.73;;
61911;SDS011;49973;52.084;5.412;2023-09-19T08:31:39;16.10;;;2.70;;
61911;SDS011;49973;52.084;5.412;2023-09-19T08:34:29;8.13;;;2.10;;
61911;SDS011;49973;52.084;5.412;2023-09-19T08:37:04;14.27;;;2.03;;
61911;SDS011;49973;52.084;5.412;2023-09-19T08:39:50;6.40;;;1.50;;
61911;SDS011;49973;52.084;5.412;2023-09-19T08:42:27;15.10;;;2.13;;
61911;SDS011;49973;52.084;5.412;2023-09-19T08:44:58;10.03;;;2.13;;
61911;SDS011;49973;52.084;5.412;2023-09-19T08:47:33;5.23;;;1.93;;
61911;SDS011;49973;52.084;5.412;2023-09-19T08:50:10;12.00;;;1.93;;
61911;SDS011;49973;52.084;5.412;2023-09-19T08:52:44;7.97;;;2.10;;
61911;SDS011;49973;52.084;5.412;2023-09-19T08:55:18;11.67;;;2.43;;
61911;SDS011;49973;52.084;5.412;2023-09-19T08:57:51;12.83;;;2.20;;
61911;SDS011;49973;52.084;5.412;2023-09-19T09:00:33;4.63;;;1.93;;
61911;SDS011;49973;52.084;5.412;2023-09-19T09:03:32;6.07;;;1.97;;
61911;SDS011;49973;52.084;5.412;2023-09-19T09:06:01;8.23;;;2.77;;
61911;SDS011;49973;52.084;5.412;2023-09-19T09:08:31;15.00;;;2.90;;
61911;SDS011;49973;52.084;5.412;2023-09-19T09:11:22;14.93;;;1.97;;
61911;SDS011;49973;52.084;5.412;2023-09-19T09:13:53;9.13;;;1.53;;
61911;SDS011;49973;52.084;5.412;2023-09-19T09:16:23;4.93;;;1.80;;
61911;SDS011;49973;52.084;5.412;2023-09-19T09:18:53;13.13;;;2.93;;
61911;SDS011;49973;52.084;5.412;2023-09-19T09:21:25;8.13;;;2.03;;
61911;SDS011;49973;52.084;5.412;2023-09-19T09:23:57;5.63;;;1.87;;
61911;SDS011;49973;52.084;5.412;2023-09-19T09:26:40;11.23;;;1.90;;
61911;SDS011;49973;52.084;5.412;2023-09-19T09:29:11;7.07;;;1.57;;
61911;SDS011;49973;52.084;5.412;2023-09-19T09:31:47;11.97;;;1.73;;
61911;SDS011;49973;52.084;5.412;2023-09-19T09:34:16;5.40;;;1.83;;
61911;SDS011;49973;52.084;5.412;2023-09-19T09:36:48;8.60;;;1.30;;
61911;SDS011;49973;52.084;5.412;2023-09-19T09:39:29;7.57;;;1.53;;
61911;SDS011;49973;52.084;5.412;2023-09-19T09:41:59;6.37;;;1.40;;
61911;SDS011;49973;52.084;5.412;2023-09-19T09:44:33;9.87;;;1.90;;
61911;SDS011;49973;52.084;5.412;2023-09-19T09:47:04;14.53;;;2.33;;
61911;SDS011;49973;52.084;5.412;2023-09-19T09:49:49;14.97;;;2.73;;
61911;SDS011;49973;52.084;5.412;2023-09-19T09:52:44;6.90;;;1.90;;
61911;SDS011;49973;52.084;5.412;2023-09-19T09:55:13;13.17;;;2.30;;
61911;SDS011;49973;52.084;5.412;2023-09-19T09:57:42;11.07;;;2.50;;
61911;SDS011;49973;52.084;5.412;2023-09-19T10:00:11;10.97;;;2.10;;
61911;SDS011;49973;52.084;5.412;2023-09-19T10:02:49;11.37;;;2.13;;
61911;SDS011;49973;52.084;5.412;2023-09-19T10:05:18;19.77;;;2.43;;
61911;SDS011;49973;52.084;5.412;2023-09-19T10:07:55;10.70;;;2.40;;
61911;SDS011;49973;52.084;5.412;2023-09-19T10:10:40;8.73;;;2.13;;
61911;SDS011;49973;52.084;5.412;2023-09-19T10:13:21;9.23;;;1.80;;
61911;SDS011;49973;52.084;5.412;2023-09-19T10:15:54;6.07;;;1.53;;
61911;SDS011;49973;52.084;5.412;2023-09-19T10:18:29;10.07;;;1.80;;
61911;SDS011;49973;52.084;5.412;2023-09-19T10:21:03;9.07;;;1.83;;
61911;SDS011;49973;52.084;5.412;2023-09-19T10:23:34;5.40;;;1.53;;
61911;SDS011;49973;52.084;5.412;2023-09-19T10:26:04;9.07;;;2.03;;
61911;SDS011;49973;52.084;5.412;2023-09-19T10:28:35;7.97;;;1.80;;
61911;SDS011;49973;52.084;5.412;2023-09-19T10:31:06;8.57;;;1.93;;
61911;SDS011;49973;52.084;5.412;2023-09-19T10:33:37;5.23;;;1.57;;
61911;SDS011;49973;52.084;5.412;2023-09-19T10:36:08;7.17;;;1.73;;
61911;SDS011;49973;52.084;5.412;2023-09-19T10:38:39;5.57;;;1.30;;
61911;SDS011;49973;52.084;5.412;2023-09-19T10:41:13;8.50;;;1.90;;
61911;SDS011;49973;52.084;5.412;2023-09-19T10:43:44;8.10;;;2.20;;
61911;SDS011;49973;52.084;5.412;2023-09-19T10:46:16;10.00;;;1.73;;
61911;SDS011;49973;52.084;5.412;2023-09-19T10:48:46;4.57;;;1.83;;
61911;SDS011;49973;52.084;5.412;2023-09-19T10:51:18;8.33;;;1.40;;
61911;SDS011;49973;52.084;5.412;2023-09-19T10:53:51;8.93;;;2.03;;
61911;SDS011;49973;52.084;5.412;2023-09-19T10:56:25;10.17;;;2.50;;
61911;SDS011;49973;52.084;5.412;2023-09-19T10:59:05;8.33;;;1.87;;
61911;SDS011;49973;52.084;5.412;2023-09-19T11:01:41;3.17;;;1.60;;
61911;SDS011;49973;52.084;5.412;2023-09-19T11:04:22;9.63;;;2.43;;
61911;SDS011;49973;52.084;5.412;2023-09-19T11:07:02;3.97;;;1.53;;
61911;SDS011;49973;52.084;5.412;2023-09-19T11:09:48;15.70;;;1.73;;
61911;SDS011;49973;52.084;5.412;2023-09-19T11:18:50;7.80;;;1.70;;
61911;SDS011;49973;52.084;5.412;2023-09-19T11:24:27;6.70;;;1.70;;
61911;SDS011;49973;52.084;5.412;2023-09-19T11:27:13;12.17;;;2.17;;
61911;SDS011;49973;52.084;5.412;2023-09-19T11:29:44;14.40;;;1.60;;
61911;SDS011;49973;52.084;5.412;2023-09-19T11:32:14;7.43;;;1.33;;
61911;SDS011;49973;52.084;5.412;2023-09-19T11:34:47;5.23;;;1.40;;
61911;SDS011;49973;52.084;5.412;2023-09-19T11:40:47;4.67;;;0.93;;
61911;SDS011;49973;52.084;5.412;2023-09-19T11:43:37;7.37;;;1.30;;
61911;SDS011;49973;52.084;5.412;2023-09-19T11:46:08;5.67;;;1.07;;
61911;SDS011;49973;52.084;5.412;2023-09-19T11:48:38;2.33;;;0.97;;
61911;SDS011;49973;52.084;5.412;2023-09-19T11:51:16;5.27;;;1.03;;
61911;SDS011;49973;52.084;5.412;2023-09-19T11:53:54;5.03;;;1.40;;
61911;SDS011;49973;52.084;5.412;2023-09-19T11:56:25;3.97;;;0.90;;
61911;SDS011;49973;52.084;5.412;2023-09-19T11:58:55;2.67;;;0.80;;
61911;SDS011;49973;52.084;5.412;2023-09-19T12:01:26;4.97;;;1.00;;
61911;SDS011;49973;52.084;5.412;2023-09-19T12:03:59;5.17;;;0.90;;
61911;SDS011;49973;52.084;5.412;2023-09-19T12:06:31;6.50;;;1.27;;
61911;SDS011;49973;52.084;5.412;2023-09-19T12:09:00;9.70;;;1.23;;
61911;SDS011;49973;52.084;5.412;2023-09-19T12:11:34;4.80;;;1.20;;
61911;SDS011;49973;52.084;5.412;2023-09-19T12:14:11;8.57;;;1.00;;
61911;SDS011;49973;52.084;5.412;2023-09-19T12:16:50;7.20;;;1.30;;
61911;SDS011;49973;52.084;5.412;2023-09-19T12:19:23;4.60;;;1.07;;
61911;SDS011;49973;52.084;5.412;2023-09-19T12:21:55;3.63;;;1.00;;
61911;SDS011;49973;52.084;5.412;2023-09-19T12:24:26;3.20;;;0.80;;
61911;SDS011;49973;52.084;5.412;2023-09-19T12:27:03;2.07;;;0.90;;
61911;SDS011;49973;52.084;5.412;2023-09-19T12:29:41;6.40;;;1.20;;
61911;SDS011;49973;52.084;5.412;2023-09-19T12:32:11;2.63;;;0.90;;
61911;SDS011;49973;52.084;5.412;2023-09-19T12:34:50;4.20;;;1.00;;
61911;SDS011;49973;52.084;5.412;2023-09-19T12:37:22;3.73;;;1.53;;
61911;SDS011;49973;52.084;5.412;2023-09-19T12:40:03;6.67;;;1.10;;
61911;SDS011;49973;52.084;5.412;2023-09-19T12:42:45;8.03;;;2.07;;
61911;SDS011;49973;52.084;5.412;2023-09-19T12:45:15;1.50;;;0.70;;
61911;SDS011;49973;52.084;5.412;2023-09-19T12:51:03;4.37;;;1.20;;
61911;SDS011;49973;52.084;5.412;2023-09-19T12:53:34;4.10;;;1.33;;
61911;SDS011;49973;52.084;5.412;2023-09-19T12:56:08;6.90;;;0.93;;
61911;SDS011;49973;52.084;5.412;2023-09-19T12:58:51;8.47;;;1.00;;
61911;SDS011;49973;52.084;5.412;2023-09-19T13:01:22;12.60;;;1.20;;
61911;SDS011;49973;52.084;5.412;2023-09-19T13:06:39;3.87;;;1.03;;
61911;SDS011;49973;52.084;5.412;2023-09-19T13:09:10;9.43;;;1.03;;
61911;SDS011;49973;52.084;5.412;2023-09-19T13:11:41;2.93;;;0.70;;
61911;SDS011;49973;52.084;5.412;2023-09-19T13:14:16;5.97;;;1.07;;
61911;SDS011;49973;52.084;5.412;2023-09-19T13:16:53;3.80;;;1.00;;
61911;SDS011;49973;52.084;5.412;2023-09-19T13:19:35;2.30;;;0.90;;
61911;SDS011;49973;52.084;5.412;2023-09-19T13:25:07;11.30;;;1.70;;
61911;SDS011;49973;52.084;5.412;2023-09-19T13:27:41;2.33;;;0.80;;
61911;SDS011;49973;52.084;5.412;2023-09-19T13:30:12;4.77;;;0.93;;
61911;SDS011;49973;52.084;5.412;2023-09-19T13:32:42;6.00;;;1.60;;
61911;SDS011;49973;52.084;5.412;2023-09-19T13:35:10;4.73;;;1.10;;
61911;SDS011;49973;52.084;5.412;2023-09-19T13:37:40;2.90;;;1.40;;
61911;SDS011;49973;52.084;5.412;2023-09-19T13:40:10;5.53;;;1.20;;
61911;SDS011;49973;52.084;5.412;2023-09-19T13:42:41;2.23;;;0.60;;
61911;SDS011;49973;52.084;5.412;2023-09-19T13:45:10;10.63;;;1.27;;
61911;SDS011;49973;52.084;5.412;2023-09-19T13:47:44;3.10;;;1.10;;
61911;SDS011;49973;52.084;5.412;2023-09-19T13:50:13;3.53;;;0.80;;
61911;SDS011;49973;52.084;5.412;2023-09-19T13:52:41;6.00;;;0.77;;
61911;SDS011;49973;52.084;5.412;2023-09-19T13:55:10;2.93;;;0.87;;
61911;SDS011;49973;52.084;5.412;2023-09-19T13:57:41;1.13;;;0.60;;
61911;SDS011;49973;52.084;5.412;2023-09-19T14:00:12;3.43;;;0.93;;
61911;SDS011;49973;52.084;5.412;2023-09-19T14:02:43;10.90;;;1.50;;
61911;SDS011;49973;52.084;5.412;2023-09-19T14:05:13;2.07;;;0.93;;
61911;SDS011;49973;52.084;5.412;2023-09-19T14:07:43;2.30;;;0.83;;
61911;SDS011;49973;52.084;5.412;2023-09-19T14:10:12;4.23;;;0.90;;
61911;SDS011;49973;52.084;5.412;2023-09-19T14:12:41;2.10;;;0.87;;
61911;SDS011;49973;52.084;5.412;2023-09-19T14:15:14;5.27;;;0.83;;
61911;SDS011;49973;52.084;5.412;2023-09-19T14:17:43;5.60;;;0.83;;
61911;SDS011;49973;52.084;5.412;2023-09-19T14:20:12;3.50;;;1.70;;
61911;SDS011;49973;52.084;5.412;2023-09-19T14:22:42;4.87;;;1.33;;
61911;SDS011;49973;52.084;5.412;2023-09-19T14:25:11;1.60;;;0.87;;
61911;SDS011;49973;52.084;5.412;2023-09-19T14:27:40;5.63;;;1.00;;
61911;SDS011;49973;52.084;5.412;2023-09-19T14:30:08;2.33;;;1.00;;
61911;SDS011;49973;52.084;5.412;2023-09-19T14:32:39;2.37;;;1.10;;
61911;SDS011;49973;52.084;5.412;2023-09-19T14:35:08;4.20;;;0.93;;
61911;SDS011;49973;52.084;5.412;2023-09-19T14:37:37;0.93;;;0.60;;
61911;SDS011;49973;52.084;5.412;2023-09-19T14:40:07;7.87;;;1.10;;
61911;SDS011;49973;52.084;5.412;2023-09-19T14:42:38;1.83;;;0.77;;
61911;SDS011;49973;52.084;5.412;2023-09-19T14:45:08;5.93;;;0.83;;
61911;SDS011;49973;52.084;5.412;2023-09-19T14:47:39;7.27;;;1.40;;
61911;SDS011;49973;52.084;5.412;2023-09-19T14:50:09;5.90;;;1.60;;
61911;SDS011;49973;52.084;5.412;2023-09-19T14:52:39;10.27;;;1.33;;
61911;SDS011;49973;52.084;5.412;2023-09-19T14:55:08;6.73;;;1.70;;
61911;SDS011;49973;52.084;5.412;2023-09-19T14:57:41;4.20;;;1.17;;
61911;SDS011;49973;52.084;5.412;2023-09-19T15:00:13;2.27;;;1.10;;
61911;SDS011;49973;52.084;5.412;2023-09-19T15:02:45;4.80;;;1.43;;
61911;SDS011;49973;52.084;5.412;2023-09-19T15:05:15;1.37;;;0.90;;
61911;SDS011;49973;52.084;5.412;2023-09-19T15:07:47;10.00;;;1.40;;
61911;SDS011;49973;52.084;5.412;2023-09-19T15:10:16;14.63;;;1.57;;
61911;SDS011;49973;52.084;5.412;2023-09-19T15:12:45;5.80;;;1.03;;
61911;SDS011;49973;52.084;5.412;2023-09-19T15:15:14;4.00;;;1.43;;
61911;SDS011;49973;52.084;5.412;2023-09-19T15:17:43;2.37;;;0.90;;
61911;SDS011;49973;52.084;5.412;2023-09-19T15:20:14;8.17;;;1.50;;
61911;SDS011;49973;52.084;5.412;2023-09-19T15:22:44;9.43;;;1.80;;
61911;SDS011;49973;52.084;5.412;2023-09-19T15:25:14;1.40;;;1.07;;
61911;SDS011;49973;52.084;5.412;2023-09-19T15:27:42;4.83;;;1.50;;
61911;SDS011;49973;52.084;5.412;2023-09-19T15:30:12;6.03;;;1.33;;
61911;SDS011;49973;52.084;5.412;2023-09-19T15:32:42;6.00;;;1.10;;